Time;durP1;ratioP1;P1;durP2;ratioP2;P2;SDS_P1;SDS_P2;PMS_P1;PMS_P2;Temp;Humidity;BMP_temperature;BMP_pressure;BME280_temperature;BME280_humidity;BME280_pressure;Samples;Min_cycle;Max_cycle;Signal;HPM_P1;HPM_P2
2022/09/04 00:02:14;;;;;;;1.13;0.70;;;24.90;50.90;;;;;;5038598;28;20542;-68
2022/09/04 00:04:59;;;;;;;0.65;0.50;;;24.90;50.90;;;;;;5030944;28;20039;-65
2022/09/04 00:07:47;;;;;;;0.80;0.50;;;24.90;50.90;;;;;;5030862;28;20025;-66
2022/09/04 00:10:57;;;;;;;1.02;0.60;;;24.90;50.90;;;;;;5030703;28;20029;-66
2022/09/04 00:13:58;;;;;;;0.75;0.60;;;24.90;50.90;;;;;;4995967;28;20741;-67
2022/09/04 00:16:34;;;;;;;0.73;0.57;;;24.80;51.30;;;;;;4986925;28;20037;-66
2022/09/04 00:19:14;;;;;;;1.02;0.60;;;24.80;50.90;;;;;;5013436;28;20080;-66
2022/09/04 00:21:56;;;;;;;0.93;0.73;;;24.80;50.90;;;;;;5031059;28;20080;-66
2022/09/04 00:24:27;;;;;;;0.70;0.60;;;24.80;50.90;;;;;;5028813;28;20075;-66
2022/09/04 00:27:12;;;;;;;2.03;0.90;;;24.80;50.90;;;;;;5030716;28;20041;-66
2022/09/04 00:29:53;;;;;;;0.80;0.60;;;24.80;50.90;;;;;;5029967;28;20489;-66
2022/09/04 00:32:37;;;;;;;1.02;0.70;;;24.80;50.90;;;;;;5012676;28;20095;-65
2022/09/04 00:35:18;;;;;;;0.90;0.85;;;24.80;50.90;;;;;;5031120;28;20088;-65
2022/09/04 00:37:46;;;;;;;0.60;0.40;;;24.80;50.90;;;;;;5030847;28;20550;-67
2022/09/04 00:40:46;;;;;;;0.60;0.55;;;24.80;50.90;;;;;;5030918;28;20034;-66
2022/09/04 00:43:44;;;;;;;1.00;0.60;;;24.70;50.90;;;;;;5029679;28;20044;-65
2022/09/04 00:46:42;;;;;;;0.73;0.60;;;24.80;50.90;;;;;;5030401;28;20017;-65
2022/09/04 00:49:19;;;;;;;0.60;0.60;;;24.70;50.90;;;;;;5030698;28;20033;-66
2022/09/04 00:52:29;;;;;;;1.00;0.50;;;24.70;50.90;;;;;;5030955;28;20505;-65
2022/09/04 00:55:17;;;;;;;0.73;0.50;;;24.70;51.00;;;;;;5005020;28;20445;-65
2022/09/04 00:57:59;;;;;;;1.33;0.70;;;24.70;51.00;;;;;;5033041;28;20469;-67
2022/09/04 01:00:26;;;;;;;0.55;0.55;;;24.70;51.00;;;;;;5034446;28;20029;-67
2022/09/04 01:03:20;;;;;;;0.82;0.50;;;24.60;50.90;;;;;;5034139;28;20028;-65
2022/09/04 01:06:19;;;;;;;0.70;0.50;;;24.60;51.00;;;;;;5034887;28;20024;-67
2022/09/04 01:09:21;;;;;;;1.15;0.70;;;24.70;51.00;;;;;;5032978;28;20072;-66
2022/09/04 01:11:58;;;;;;;0.75;0.50;;;24.70;51.00;;;;;;5034446;28;20381;-65
2022/09/04 01:14:33;;;;;;;0.63;0.50;;;24.60;50.90;;;;;;5033641;28;20128;-66
2022/09/04 01:17:24;;;;;;;0.90;0.70;;;24.60;50.90;;;;;;5034573;28;20083;-67
2022/09/04 01:20:15;;;;;;;1.58;0.50;;;24.60;51.00;;;;;;5034675;28;20426;-66
2022/09/04 01:23:07;;;;;;;0.88;0.50;;;24.60;51.00;;;;;;5033648;28;20026;-65
2022/09/04 01:25:53;;;;;;;1.40;0.80;;;24.60;51.50;;;;;;5033262;28;20041;-67
2022/09/04 01:29:16;;;;;;;0.90;0.70;;;24.60;51.00;;;;;;5034268;28;20026;-66
2022/09/04 01:32:08;;;;;;;0.65;0.57;;;24.50;51.00;;;;;;4956451;28;20487;-65
2022/09/04 01:34:58;;;;;;;0.60;0.57;;;24.60;51.10;;;;;;4932311;28;20125;-65
2022/09/04 01:37:32;;;;;;;0.55;0.50;;;24.60;51.00;;;;;;5036503;28;20045;-66
2022/09/04 01:40:22;;;;;;;0.82;0.63;;;24.50;51.00;;;;;;5052592;28;20125;-66
2022/09/04 01:43:10;;;;;;;1.70;0.70;;;24.50;51.00;;;;;;5052419;28;20017;-66
2022/09/04 01:45:48;;;;;;;0.50;0.50;;;24.50;51.10;;;;;;5054088;28;20017;-67
2022/09/04 01:48:19;;;;;;;0.70;0.52;;;24.50;51.10;;;;;;5053852;28;20033;-65
2022/09/04 01:50:49;;;;;;;0.80;0.50;;;24.50;51.00;;;;;;5053946;28;20033;-67
2022/09/04 01:53:24;;;;;;;0.57;0.50;;;24.50;51.10;;;;;;5053834;28;20029;-65
2022/09/04 01:56:18;;;;;;;0.77;0.70;;;24.50;51.00;;;;;;5053656;28;20421;-64
2022/09/04 01:58:54;;;;;;;0.60;0.50;;;24.50;51.10;;;;;;5053462;28;20033;-66
2022/09/04 02:01:29;;;;;;;1.00;0.63;;;24.50;51.10;;;;;;5043101;28;20049;-66
2022/09/04 02:04:20;;;;;;;0.88;0.70;;;24.50;51.10;;;;;;5032559;28;20033;-66
2022/09/04 02:07:11;;;;;;;0.70;0.63;;;24.50;51.10;;;;;;5033020;28;20026;-65
2022/09/04 02:10:01;;;;;;;0.50;0.50;;;24.50;51.10;;;;;;5033539;28;20021;-65
2022/09/04 02:12:41;;;;;;;0.95;0.65;;;24.50;51.10;;;;;;5033546;28;20480;-65
2022/09/04 02:15:22;;;;;;;1.08;0.55;;;24.40;51.10;;;;;;5033355;28;20055;-65
2022/09/04 02:18:10;;;;;;;1.17;0.63;;;24.50;51.10;;;;;;5033381;28;20029;-67
2022/09/04 02:20:43;;;;;;;0.88;0.60;;;24.40;51.00;;;;;;5033393;28;20047;-66
2022/09/04 02:23:39;;;;;;;1.35;0.70;;;24.40;51.10;;;;;;5033072;28;20028;-66
2022/09/04 02:26:19;;;;;;;1.23;0.50;;;24.40;51.10;;;;;;5028304;28;20065;-65
2022/09/04 02:28:53;;;;;;;0.80;0.50;;;24.40;51.10;;;;;;5032799;28;20025;-66
2022/09/04 02:32:13;;;;;;;0.40;0.40;;;24.40;51.10;;;;;;5013505;28;20148;-65
2022/09/04 02:34:48;;;;;;;0.77;0.50;;;24.40;51.10;;;;;;4925136;29;20044;-65
2022/09/04 02:37:41;;;;;;;0.60;0.60;;;24.40;51.10;;;;;;5031379;28;20137;-66
2022/09/04 02:40:32;;;;;;;1.02;0.60;;;24.40;51.20;;;;;;5032700;28;20530;-66
2022/09/04 02:43:22;;;;;;;0.88;0.70;;;24.40;51.20;;;;;;5024885;28;20033;-66
2022/09/04 02:45:59;;;;;;;0.70;0.60;;;24.40;51.20;;;;;;5032746;28;20430;-65
2022/09/04 02:48:36;;;;;;;1.17;0.70;;;24.40;51.20;;;;;;5031686;28;20079;-66
2022/09/04 02:51:12;;;;;;;0.60;0.60;;;24.30;51.10;;;;;;5031776;28;20037;-66
2022/09/04 02:53:53;;;;;;;0.63;0.50;;;24.40;51.20;;;;;;5032564;28;20543;-65
2022/09/04 02:56:21;;;;;;;0.70;0.60;;;24.30;51.10;;;;;;5032706;28;20385;-66
2022/09/04 02:58:52;;;;;;;0.70;0.60;;;24.30;51.10;;;;;;5032569;28;20029;-65
2022/09/04 03:01:31;;;;;;;0.63;0.52;;;24.30;51.10;;;;;;5031123;28;20037;-67
2022/09/04 03:04:29;;;;;;;0.50;0.50;;;24.30;51.20;;;;;;5032301;28;20033;-66
2022/09/04 03:07:31;;;;;;;1.25;0.90;;;24.30;51.10;;;;;;5016241;28;20041;-67
2022/09/04 03:10:18;;;;;;;1.10;0.70;;;24.30;51.10;;;;;;5019279;28;20504;-66
2022/09/04 03:12:58;;;;;;;0.68;0.60;;;24.30;51.20;;;;;;5032013;28;20056;-65
2022/09/04 03:15:33;;;;;;;;;;;24.30;51.10;;;;;;5032490;28;20038;-66
2022/09/04 03:18:15;;;;;;;0.80;0.55;;;24.30;51.20;;;;;;5032192;28;20612;-65
2022/09/04 03:21:06;;;;;;;1.17;0.60;;;24.30;51.20;;;;;;5030907;28;20024;-65
2022/09/04 03:23:49;;;;;;;0.52;0.50;;;24.30;51.20;;;;;;5031674;28;20029;-64
2022/09/04 03:26:26;;;;;;;0.60;0.50;;;24.30;51.20;;;;;;5006690;28;20075;-66
2022/09/04 03:29:08;;;;;;;0.50;0.50;;;24.30;51.20;;;;;;5031797;28;20043;-65
2022/09/04 03:31:39;;;;;;;0.77;0.60;;;24.30;51.20;;;;;;5030695;28;20036;-66
2022/09/04 03:34:26;;;;;;;0.60;0.60;;;24.30;51.20;;;;;;5031833;28;20076;-66
2022/09/04 03:37:06;;;;;;;0.98;0.60;;;24.30;51.20;;;;;;5031918;28;20045;-66
2022/09/04 03:39:38;;;;;;;0.47;0.47;;;24.30;51.20;;;;;;5030798;28;20048;-67
2022/09/04 03:42:19;;;;;;;0.60;0.60;;;24.30;51.20;;;;;;5031843;28;20030;-66
2022/09/04 03:44:44;;;;;;;0.50;0.50;;;24.30;51.20;;;;;;5031383;28;20489;-66
2022/09/04 03:47:31;;;;;;;0.52;0.50;;;24.30;51.20;;;;;;5005442;28;20079;-64
2022/09/04 03:50:17;;;;;;;0.77;0.60;;;24.20;51.20;;;;;;5031024;28;20076;-66
2022/09/04 03:53:17;;;;;;;0.93;0.63;;;24.20;51.20;;;;;;5029946;28;20134;-66
2022/09/04 03:56:33;;;;;;;0.98;0.70;;;24.20;51.20;;;;;;5031492;28;20140;-65
2022/09/04 03:59:37;;;;;;;0.60;0.60;;;24.20;51.20;;;;;;4993072;28;20041;-65
2022/09/04 04:02:09;;;;;;;0.82;0.60;;;24.20;51.20;;;;;;4972671;28;20048;-67
2022/09/04 04:05:02;;;;;;;2.47;0.68;;;24.20;51.20;;;;;;5031544;28;20064;-65
2022/09/04 04:07:40;;;;;;;0.60;0.55;;;24.20;51.20;;;;;;5030922;28;20025;-66
2022/09/04 04:10:21;;;;;;;0.50;0.50;;;24.20;51.30;;;;;;5031152;28;20028;-66
2022/09/04 04:13:15;;;;;;;0.73;0.60;;;24.20;51.20;;;;;;5030374;28;20029;-65
2022/09/04 04:15:49;;;;;;;0.75;0.60;;;24.20;51.30;;;;;;5031067;28;20128;-65
2022/09/04 04:18:24;;;;;;;0.60;0.50;;;24.20;51.20;;;;;;5030916;28;20370;-66
2022/09/04 04:21:17;;;;;;;1.10;0.70;;;24.20;51.20;;;;;;5029160;28;20091;-66
2022/09/04 04:23:58;;;;;;;0.60;0.55;;;24.20;51.30;;;;;;5029774;28;20381;-66
2022/09/04 04:26:46;;;;;;;0.68;0.50;;;24.10;51.20;;;;;;5030941;28;20051;-65
2022/09/04 04:29:26;;;;;;;0.60;0.50;;;24.20;51.20;;;;;;5030329;28;20019;-67
2022/09/04 04:32:12;;;;;;;0.60;0.50;;;24.10;51.20;;;;;;5029545;28;20034;-66
2022/09/04 04:35:02;;;;;;;0.77;0.60;;;24.10;51.30;;;;;;5030492;28;20052;-65
2022/09/04 04:37:42;;;;;;;0.50;0.50;;;24.10;51.30;;;;;;5004545;28;20025;-66
2022/09/04 04:40:07;;;;;;;0.70;0.60;;;24.10;51.30;;;;;;5030785;28;20326;-65
2022/09/04 04:42:56;;;;;;;0.77;0.60;;;24.10;51.20;;;;;;5030838;28;20040;-66
2022/09/04 04:45:49;;;;;;;0.50;0.50;;;24.10;51.30;;;;;;5030686;28;20104;-65
2022/09/04 04:48:22;;;;;;;0.50;0.50;;;24.10;51.30;;;;;;5030477;28;20030;-65
2022/09/04 04:51:20;;;;;;;0.75;0.57;;;24.10;51.30;;;;;;5029352;28;20049;-66
2022/09/04 04:54:12;;;;;;;0.47;0.47;;;24.10;51.30;;;;;;5030437;28;20025;-66
2022/09/04 04:56:49;;;;;;;0.80;0.60;;;24.10;51.30;;;;;;5030496;28;20075;-65
2022/09/04 04:59:24;;;;;;;0.63;0.50;;;24.10;51.30;;;;;;5029665;28;20531;-66
2022/09/04 05:02:27;;;;;;;0.85;0.60;;;24.10;51.30;;;;;;5029564;28;20029;-67
2022/09/04 05:05:12;;;;;;;0.60;0.60;;;24.10;51.30;;;;;;5029702;28;20481;-66
2022/09/04 05:08:19;;;;;;;0.70;0.60;;;24.10;51.30;;;;;;5030779;28;20021;-66
2022/09/04 05:10:49;;;;;;;0.65;0.60;;;24.10;51.30;;;;;;5029386;28;20026;-66
2022/09/04 05:13:48;;;;;;;0.50;0.50;;;24.10;51.30;;;;;;5029221;28;20068;-65
2022/09/04 05:16:41;;;;;;;0.50;0.50;;;24.10;51.30;;;;;;4996812;28;20137;-68
2022/09/04 05:19:16;;;;;;;0.43;0.43;;;24.10;51.30;;;;;;5028145;28;20116;-65
2022/09/04 05:21:58;;;;;;;0.77;0.70;;;24.10;51.30;;;;;;5030253;28;20453;-65
2022/09/04 05:25:04;;;;;;;0.70;0.60;;;24.10;51.30;;;;;;5029325;28;20504;-67
2022/09/04 05:28:00;;;;;;;0.50;0.50;;;24.10;51.30;;;;;;5028742;28;20448;-66
2022/09/04 05:30:34;;;;;;;0.70;0.70;;;24.10;51.30;;;;;;5028425;28;20037;-65
2022/09/04 05:33:27;;;;;;;0.80;0.57;;;24.10;51.30;;;;;;5030267;28;20025;-66
2022/09/04 05:35:59;;;;;;;0.60;0.60;;;24.10;51.30;;;;;;4993411;28;20058;-65
2022/09/04 05:38:37;;;;;;;0.63;0.63;;;24.00;51.30;;;;;;5029470;28;20032;-65
2022/09/04 05:41:05;;;;;;;0.95;0.60;;;24.10;51.30;;;;;;5029701;28;20018;-65
2022/09/04 05:43:58;;;;;;;0.55;0.55;;;24.00;51.30;;;;;;5031687;28;20024;-65
2022/09/04 05:46:31;;;;;;;0.57;0.50;;;24.00;51.30;;;;;;5033824;28;20029;-65
2022/09/04 05:49:13;;;;;;;0.60;0.60;;;24.00;51.30;;;;;;5032793;28;20041;-65
2022/09/04 05:51:57;;;;;;;0.32;0.32;;;24.00;51.30;;;;;;5033821;28;20614;-65
2022/09/04 05:54:47;;;;;;;0.52;0.50;;;24.00;51.30;;;;;;5033767;28;20037;-65
2022/09/04 05:57:20;;;;;;;0.68;0.60;;;24.00;51.30;;;;;;5032865;28;20039;-64
2022/09/04 06:00:13;;;;;;;0.50;0.50;;;24.00;51.30;;;;;;5032582;28;20025;-65
2022/09/04 06:03:06;;;;;;;0.65;0.50;;;24.00;51.30;;;;;;5053014;28;20127;-65
2022/09/04 06:05:35;;;;;;;0.95;0.75;;;24.00;51.30;;;;;;5053155;28;20025;-66
2022/09/04 06:08:14;;;;;;;1.02;0.60;;;24.00;51.30;;;;;;5053465;28;20536;-65
2022/09/04 06:11:22;;;;;;;0.52;0.52;;;24.00;51.30;;;;;;5053345;28;20124;-65
2022/09/04 06:13:53;;;;;;;0.55;0.50;;;24.00;51.30;;;;;;5052777;28;20084;-65
2022/09/04 06:16:19;;;;;;;0.55;0.55;;;24.00;51.30;;;;;;5053305;28;20388;-65
2022/09/04 06:19:21;;;;;;;0.57;0.50;;;24.00;51.30;;;;;;5053185;28;20025;-65
2022/09/04 06:22:05;;;;;;;0.50;0.50;;;23.90;51.40;;;;;;5052082;28;20017;-65
2022/09/04 06:24:30;;;;;;;0.50;0.50;;;23.90;51.40;;;;;;5053132;28;20384;-65
2022/09/04 06:27:04;;;;;;;0.60;0.60;;;24.00;51.40;;;;;;5053126;28;20096;-66
2022/09/04 06:29:51;;;;;;;0.60;0.60;;;24.00;51.40;;;;;;5053025;28;20039;-65
2022/09/04 06:32:26;;;;;;;0.50;0.50;;;23.90;51.40;;;;;;5039087;28;20033;-65
2022/09/04 06:35:08;;;;;;;0.55;0.55;;;23.90;51.40;;;;;;5053065;28;20082;-65
2022/09/04 06:37:44;;;;;;;0.50;0.50;;;24.00;51.40;;;;;;5052549;28;20036;-65
2022/09/04 06:40:37;;;;;;;0.55;0.55;;;23.90;51.40;;;;;;5052902;28;20559;-65
2022/09/04 06:43:24;;;;;;;0.50;0.50;;;23.90;51.40;;;;;;5022794;28;20036;-65
2022/09/04 06:46:21;;;;;;;0.60;0.50;;;24.00;51.40;;;;;;5052626;28;20132;-65
2022/09/04 06:49:18;;;;;;;0.50;0.50;;;23.90;51.40;;;;;;5052225;28;20021;-65
2022/09/04 06:52:06;;;;;;;0.50;0.50;;;23.90;51.40;;;;;;5017735;28;20043;-65
2022/09/04 06:55:07;;;;;;;0.98;0.60;;;23.90;51.40;;;;;;5051661;28;20055;-65
2022/09/04 06:57:47;;;;;;;0.50;0.50;;;23.90;51.40;;;;;;5052117;28;20029;-65
2022/09/04 07:00:18;;;;;;;0.50;0.50;;;23.90;51.40;;;;;;5050780;28;20032;-67
2022/09/04 07:03:10;;;;;;;0.50;0.50;;;23.90;51.40;;;;;;5052475;28;20025;-66
2022/09/04 07:05:57;;;;;;;0.70;0.60;;;23.90;51.40;;;;;;5051676;28;20025;-65
2022/09/04 07:08:29;;;;;;;0.50;0.50;;;23.90;51.40;;;;;;5051241;28;20043;-65
2022/09/04 07:11:15;;;;;;;0.50;0.50;;;23.90;51.90;;;;;;5052281;28;20072;-65
2022/09/04 07:13:58;;;;;;;0.40;0.40;;;23.90;51.40;;;;;;5052388;28;20087;-64
2022/09/04 07:16:55;;;;;;;0.50;0.50;;;23.90;51.40;;;;;;5052185;28;20925;-65
2022/09/04 07:19:41;;;;;;;0.50;0.50;;;23.90;51.50;;;;;;5015583;28;20129;-65
2022/09/04 07:22:31;;;;;;;0.82;0.50;;;23.90;51.40;;;;;;5051314;28;20107;-65
2022/09/04 07:25:03;;;;;;;0.82;0.60;;;23.90;51.50;;;;;;5051216;28;20119;-65
2022/09/04 07:27:47;;;;;;;0.60;0.60;;;23.90;51.40;;;;;;5051902;28;20036;-65
2022/09/04 07:30:14;;;;;;;0.60;0.60;;;23.90;51.50;;;;;;5051144;28;20024;-65
2022/09/04 07:32:49;;;;;;;0.90;0.80;;;23.90;51.50;;;;;;5051021;28;20059;-65
2022/09/04 07:35:37;;;;;;;1.17;0.70;;;23.90;51.50;;;;;;5051646;28;20690;-65
2022/09/04 07:38:49;;;;;;;0.82;0.70;;;23.90;51.50;;;;;;5051689;28;20543;-65
2022/09/04 07:41:36;;;;;;;0.75;0.68;;;23.90;51.50;;;;;;4970665;28;20170;-65
2022/09/04 07:44:32;;;;;;;0.80;0.70;;;23.90;51.50;;;;;;5051017;28;20021;-65
2022/09/04 07:47:20;;;;;;;0.68;0.68;;;23.80;51.50;;;;;;5050379;28;20451;-65
2022/09/04 07:49:59;;;;;;;0.82;0.70;;;23.80;51.50;;;;;;5050202;28;20070;-65
2022/09/04 07:52:24;;;;;;;;;;;23.80;51.50;;;;;;5051448;28;20072;-65
2022/09/04 07:54:57;;;;;;;0.88;0.70;;;23.80;51.50;;;;;;5051530;28;20498;-65
2022/09/04 07:57:32;;;;;;;0.75;0.70;;;23.90;51.50;;;;;;5051283;28;20480;-65
2022/09/04 08:00:12;;;;;;;0.88;0.77;;;23.80;51.40;;;;;;5050970;28;20492;-65
2022/09/04 08:03:20;;;;;;;0.90;0.70;;;23.80;51.40;;;;;;5050472;28;20120;-65
2022/09/04 08:06:00;;;;;;;1.02;0.80;;;23.80;51.50;;;;;;5050692;28;20145;-64
2022/09/04 08:08:50;;;;;;;0.70;0.70;;;23.80;51.40;;;;;;5051189;28;20025;-65
2022/09/04 08:11:44;;;;;;;0.98;0.70;;;23.80;51.40;;;;;;5050466;28;20535;-64
2022/09/04 08:14:50;;;;;;;0.65;0.65;;;23.80;51.40;;;;;;5050679;28;20136;-65
2022/09/04 08:17:25;;;;;;;0.75;0.65;;;23.80;51.40;;;;;;5050909;28;20445;-64
2022/09/04 08:20:25;;;;;;;0.75;0.60;;;23.80;51.40;;;;;;5050818;28;20051;-64
2022/09/04 08:22:57;;;;;;;1.02;0.80;;;23.80;51.30;;;;;;5047646;28;20033;-65
2022/09/04 08:25:42;;;;;;;0.60;0.60;;;23.90;51.40;;;;;;5050978;28;20025;-65
2022/09/04 08:28:43;;;;;;;1.05;0.82;;;23.80;51.30;;;;;;5050866;28;20025;-65
2022/09/04 08:31:47;;;;;;;1.30;0.90;;;23.80;51.30;;;;;;5019371;28;20075;-64
2022/09/04 08:34:31;;;;;;;1.10;0.90;;;23.80;51.30;;;;;;5050224;28;20480;-65
2022/09/04 08:37:23;;;;;;;0.77;0.73;;;23.80;51.40;;;;;;5023696;28;20033;-64
2022/09/04 08:40:15;;;;;;;0.80;0.80;;;23.80;51.40;;;;;;5049972;28;20114;-65
2022/09/04 08:43:02;;;;;;;1.23;0.90;;;23.90;51.40;;;;;;5050503;28;20016;-65
2022/09/04 08:46:05;;;;;;;1.10;0.90;;;23.80;51.40;;;;;;5050453;28;20063;-64
2022/09/04 08:48:46;;;;;;;1.45;0.90;;;23.80;51.40;;;;;;5049372;28;20033;-64
2022/09/04 08:51:49;;;;;;;1.15;0.85;;;23.80;51.40;;;;;;5050706;28;20071;-64
2022/09/04 08:54:55;;;;;;;1.13;0.80;;;23.80;51.40;;;;;;5050618;28;20396;-65
2022/09/04 08:57:55;;;;;;;0.70;0.70;;;23.80;51.40;;;;;;5048417;28;20105;-64
2022/09/04 09:00:52;;;;;;;1.65;1.00;;;23.80;52.00;;;;;;5049444;28;20100;-64
2022/09/04 09:03:54;;;;;;;2.03;0.90;;;23.80;51.50;;;;;;5032215;28;20029;-64
2022/09/04 09:06:25;;;;;;;1.25;0.90;;;23.80;51.60;;;;;;5050411;28;20127;-64
2022/09/04 09:09:18;;;;;;;1.15;0.90;;;23.80;51.70;;;;;;5050270;28;20055;-64
2022/09/04 09:12:07;;;;;;;1.40;1.00;;;23.80;51.80;;;;;;5049734;28;20029;-64
2022/09/04 09:15:08;;;;;;;1.13;0.90;;;23.80;51.80;;;;;;5049850;28;20056;-64
2022/09/04 09:17:49;;;;;;;0.93;0.80;;;23.80;51.70;;;;;;5050944;28;20033;-64
2022/09/04 09:20:49;;;;;;;1.00;0.90;;;23.80;51.80;;;;;;5053775;28;20078;-64
2022/09/04 09:23:42;;;;;;;1.10;0.90;;;23.80;51.80;;;;;;5054100;28;20035;-64
2022/09/04 09:26:27;;;;;;;1.42;0.90;;;23.80;51.80;;;;;;5053978;28;20028;-64
2022/09/04 09:29:07;;;;;;;1.45;1.05;;;23.80;51.80;;;;;;5053027;28;20472;-64
2022/09/04 09:32:18;;;;;;;0.90;0.88;;;23.80;51.70;;;;;;5052846;28;20132;-64
2022/09/04 09:35:02;;;;;;;1.38;0.80;;;23.80;51.80;;;;;;5052578;28;20387;-65
2022/09/04 09:38:06;;;;;;;1.27;0.90;;;23.90;51.80;;;;;;5027446;28;20028;-64
2022/09/04 09:40:54;;;;;;;1.58;1.00;;;23.90;51.80;;;;;;4981699;28;20069;-64
2022/09/04 09:43:29;;;;;;;1.88;0.95;;;23.80;51.80;;;;;;5052972;28;20487;-64
2022/09/04 09:46:18;;;;;;;1.30;0.95;;;23.90;51.80;;;;;;5053113;28;20041;-64
2022/09/04 09:48:49;;;;;;;1.33;0.98;;;23.90;51.80;;;;;;5053649;28;20033;-64
2022/09/04 09:51:47;;;;;;;1.48;1.05;;;23.90;51.80;;;;;;5052420;28;20083;-65
2022/09/04 09:54:58;;;;;;;1.75;1.20;;;23.90;51.90;;;;;;5017771;28;20041;-64
2022/09/04 09:57:29;;;;;;;1.35;1.10;;;23.90;51.90;;;;;;5052974;28;20033;-64
2022/09/04 10:00:01;;;;;;;1.20;1.02;;;23.90;51.90;;;;;;5053252;28;20468;-64
2022/09/04 10:02:26;;;;;;;1.40;1.05;;;23.90;52.00;;;;;;5051396;28;20049;-64
2022/09/04 10:05:31;;;;;;;1.90;1.20;;;23.90;52.00;;;;;;5052460;28;20051;-64
2022/09/04 10:08:13;;;;;;;1.88;1.20;;;23.90;52.00;;;;;;5051814;28;20029;-64
2022/09/04 10:10:58;;;;;;;1.80;1.20;;;23.90;52.10;;;;;;5050972;28;20029;-65
2022/09/04 10:13:33;;;;;;;2.85;1.40;;;23.90;52.10;;;;;;5052746;28;20052;-64
2022/09/04 10:16:29;;;;;;;2.47;1.40;;;23.90;52.20;;;;;;5034179;28;20377;-64
2022/09/04 10:19:22;;;;;;;2.33;1.50;;;23.90;52.20;;;;;;5052099;28;20040;-64
2022/09/04 10:22:23;;;;;;;2.08;1.42;;;23.90;52.10;;;;;;5052017;28;20032;-64
2022/09/04 10:25:10;;;;;;;2.53;1.48;;;23.90;52.10;;;;;;5050383;28;20136;-65
2022/09/04 10:27:45;;;;;;;3.03;1.80;;;23.90;52.10;;;;;;5052011;28;20029;-64
2022/09/04 10:30:21;;;;;;;1.85;1.38;;;23.90;52.10;;;;;;5048857;28;20033;-64
2022/09/04 10:33:02;;;;;;;2.30;1.60;;;23.90;52.00;;;;;;5032296;28;20033;-65
2022/09/04 10:35:46;;;;;;;2.03;1.52;;;23.90;52.10;;;;;;5032906;28;20029;-64
2022/09/04 10:38:25;;;;;;;2.78;1.60;;;23.90;52.10;;;;;;5031473;28;20429;-65
2022/09/04 10:41:10;;;;;;;2.80;1.60;;;23.90;52.10;;;;;;5032762;28;20543;-64
2022/09/04 10:44:09;;;;;;;3.13;2.22;;;23.90;52.10;;;;;;5032199;28;20653;-64
2022/09/04 10:47:10;;;;;;;3.75;2.60;;;23.90;52.10;;;;;;5032894;28;20032;-64
2022/09/04 10:49:54;;;;;;;4.95;3.30;;;23.90;52.10;;;;;;5018586;28;20567;-65
2022/09/04 10:52:59;;;;;;;5.32;3.92;;;23.90;52.20;;;;;;5031441;28;20350;-64
2022/09/04 10:55:31;;;;;;;6.55;4.57;;;23.90;52.20;;;;;;5032794;28;20021;-65
2022/09/04 10:58:39;;;;;;;6.75;5.10;;;23.90;52.20;;;;;;5031211;28;20484;-64
2022/09/04 11:01:26;;;;;;;7.22;5.45;;;23.90;52.20;;;;;;5031215;28;20057;-64
2022/09/04 11:04:19;;;;;;;9.25;6.97;;;24.00;52.30;;;;;;5031826;28;20473;-64
2022/09/04 11:06:56;;;;;;;9.60;7.05;;;24.00;52.40;;;;;;5032302;28;20018;-64
2022/09/04 11:09:59;;;;;;;10.65;7.75;;;24.00;52.40;;;;;;5032036;28;20030;-64
2022/09/04 11:12:58;;;;;;;12.50;8.57;;;24.00;52.40;;;;;;5031354;28;20452;-64
2022/09/04 11:15:23;;;;;;;;;;;24.00;52.40;;;;;;5031979;28;20198;-64
2022/09/04 11:18:26;;;;;;;11.82;8.82;;;24.00;52.60;;;;;;5032139;28;20319;-64
2022/09/04 11:21:06;;;;;;;11.30;8.55;;;24.00;52.60;;;;;;5031964;28;20552;-65
2022/09/04 11:24:06;;;;;;;11.75;9.02;;;24.00;52.60;;;;;;5031591;28;20499;-64
2022/09/04 11:27:00;;;;;;;11.40;9.25;;;24.00;52.70;;;;;;5030704;28;20021;-64
2022/09/04 11:29:34;;;;;;;11.70;8.95;;;24.00;52.70;;;;;;5031177;28;20030;-65
2022/09/04 11:32:30;;;;;;;10.63;8.18;;;24.00;52.70;;;;;;5030606;28;20488;-64
2022/09/04 11:35:14;;;;;;;10.05;8.10;;;24.00;52.80;;;;;;5031479;28;20021;-64
2022/09/04 11:37:55;;;;;;;12.00;8.38;;;24.00;52.80;;;;;;5029952;28;20036;-64
2022/09/04 11:40:38;;;;;;;11.38;7.97;;;24.00;52.80;;;;;;5030203;28;20657;-64
2022/09/04 11:43:25;;;;;;;10.93;7.97;;;24.00;52.90;;;;;;5030375;28;20036;-64
2022/09/04 11:45:57;;;;;;;9.40;6.88;;;24.00;52.90;;;;;;5030382;28;20018;-64
2022/09/04 11:48:52;;;;;;;8.50;6.63;;;24.00;52.90;;;;;;5030295;28;20033;-64
2022/09/04 11:51:33;;;;;;;9.55;7.32;;;24.10;53.00;;;;;;5028793;28;20031;-64
2022/09/04 11:54:23;;;;;;;9.73;6.55;;;24.10;52.90;;;;;;5030099;28;20477;-64
2022/09/04 11:56:57;;;;;;;7.57;5.57;;;24.10;53.00;;;;;;5029502;28;20083;-63
2022/09/04 11:59:54;;;;;;;8.45;5.78;;;24.10;53.00;;;;;;5029857;28;20041;-64
2022/09/04 12:02:43;;;;;;;7.38;5.20;;;24.10;53.00;;;;;;5029696;28;20044;-64
2022/09/04 12:05:38;;;;;;;6.68;4.75;;;24.10;52.90;;;;;;5030528;28;20026;-64
2022/09/04 12:08:45;;;;;;;6.88;4.70;;;24.10;52.90;;;;;;5021217;28;20563;-65
2022/09/04 12:11:23;;;;;;;6.72;4.57;;;24.10;52.80;;;;;;4980185;28;20041;-65
2022/09/04 12:14:14;;;;;;;6.18;4.72;;;24.10;52.80;;;;;;5029307;28;20053;-64
2022/09/04 12:17:05;;;;;;;5.70;4.18;;;24.10;52.70;;;;;;5030116;28;20039;-64
2022/09/04 12:19:31;;;;;;;5.05;3.72;;;24.10;52.70;;;;;;5018439;28;20053;-63
2022/09/04 12:22:25;;;;;;;6.50;4.28;;;24.10;52.70;;;;;;5030120;28;20092;-64
2022/09/04 12:25:11;;;;;;;6.47;3.92;;;24.10;52.70;;;;;;5028731;28;20037;-64
2022/09/04 12:27:42;;;;;;;5.80;3.80;;;24.10;52.70;;;;;;5028537;28;20423;-65
2022/09/04 12:30:25;;;;;;;5.57;3.90;;;24.10;52.70;;;;;;5030474;28;20028;-64
2022/09/04 12:33:02;;;;;;;5.35;3.97;;;24.10;52.70;;;;;;5030750;28;20384;-64
2022/09/04 12:35:54;;;;;;;7.65;4.32;;;24.10;52.70;;;;;;5030773;28;20025;-65
2022/09/04 12:38:45;;;;;;;5.47;3.60;;;24.10;52.70;;;;;;5028865;28;20079;-65
2022/09/04 12:41:17;;;;;;;5.45;3.90;;;24.10;52.70;;;;;;5029451;28;20032;-65
2022/09/04 12:43:57;;;;;;;6.20;3.83;;;24.20;52.70;;;;;;5030422;28;20022;-64
2022/09/04 12:46:25;;;;;;;5.22;3.75;;;24.20;52.70;;;;;;5030097;28;20033;-65
2022/09/04 12:49:25;;;;;;;4.38;3.28;;;24.10;52.70;;;;;;5030360;28;20104;-64
2022/09/04 12:52:29;;;;;;;5.78;3.80;;;24.20;52.70;;;;;;5028778;28;20488;-64
2022/09/04 12:55:22;;;;;;;5.07;3.50;;;24.20;52.70;;;;;;5030641;28;20059;-64
2022/09/04 12:58:01;;;;;;;4.47;3.20;;;24.20;52.70;;;;;;5030248;28;20035;-63
2022/09/04 13:00:39;;;;;;;5.03;3.10;;;24.20;52.60;;;;;;5030265;28;20060;-64
2022/09/04 13:03:17;;;;;;;4.07;2.92;;;24.20;52.60;;;;;;5030706;28;20547;-64
2022/09/04 13:06:03;;;;;;;4.88;3.20;;;24.20;52.60;;;;;;5030071;28;20481;-64
2022/09/04 13:08:48;;;;;;;4.68;2.75;;;24.20;52.60;;;;;;5030003;28;20030;-65
2022/09/04 13:11:29;;;;;;;4.13;2.95;;;24.20;52.50;;;;;;5030421;28;20025;-65
2022/09/04 13:13:58;;;;;;;4.18;2.90;;;24.20;52.50;;;;;;5030281;28;20057;-64
2022/09/04 13:16:43;;;;;;;4.40;2.60;;;24.20;52.50;;;;;;5029496;28;20048;-64
2022/09/04 13:19:49;;;;;;;3.60;2.53;;;24.20;52.50;;;;;;5030083;28;20537;-65
2022/09/04 13:22:29;;;;;;;4.13;2.78;;;24.20;52.60;;;;;;5029970;28;20372;-64
2022/09/04 13:25:01;;;;;;;3.60;2.40;;;24.20;52.50;;;;;;5030371;28;20045;-64
2022/09/04 13:28:05;;;;;;;3.38;2.50;;;24.20;52.50;;;;;;5029345;28;20079;-64
2022/09/04 13:30:33;;;;;;;3.85;2.40;;;24.30;53.00;;;;;;4958774;28;20035;-65
2022/09/04 13:33:20;;;;;;;4.05;2.50;;;24.30;52.50;;;;;;4959488;28;20149;-64
2022/09/04 13:35:58;;;;;;;3.38;2.40;;;24.30;52.50;;;;;;5003972;28;20056;-65
2022/09/04 13:38:26;;;;;;;3.53;2.40;;;24.20;52.40;;;;;;5030284;28;20053;-64
2022/09/04 13:40:53;;;;;;;3.63;2.10;;;24.30;52.40;;;;;;5030207;28;20025;-65
2022/09/04 13:43:33;;;;;;;3.38;2.30;;;24.30;52.40;;;;;;5030311;28;20396;-65
2022/09/04 13:46:06;;;;;;;3.97;2.05;;;24.30;52.40;;;;;;5030225;28;20025;-65
2022/09/04 13:48:43;;;;;;;2.80;2.00;;;24.30;52.40;;;;;;5030262;28;20021;-65
2022/09/04 13:51:15;;;;;;;3.20;2.20;;;24.30;52.40;;;;;;5030117;28;20116;-64
2022/09/04 13:54:09;;;;;;;3.40;2.40;;;24.30;52.40;;;;;;5030089;28;20026;-65
2022/09/04 13:56:41;;;;;;;3.00;2.20;;;24.30;52.40;;;;;;5029137;28;20049;-64
2022/09/04 13:59:09;;;;;;;3.75;2.30;;;24.30;52.40;;;;;;5028079;28;20033;-65
2022/09/04 14:01:48;;;;;;;3.63;2.30;;;24.30;52.40;;;;;;5029494;28;20056;-64
2022/09/04 14:04:26;;;;;;;3.40;1.73;;;24.30;52.40;;;;;;5031481;28;20033;-65
2022/09/04 14:07:05;;;;;;;3.45;2.25;;;24.30;52.40;;;;;;5014938;28;20164;-65
2022/09/04 14:09:38;;;;;;;3.47;2.20;;;24.30;52.40;;;;;;5032213;28;20384;-64
2022/09/04 14:12:14;;;;;;;2.78;2.08;;;24.30;52.30;;;;;;5032175;28;20025;-64
2022/09/04 14:14:42;;;;;;;3.42;2.15;;;24.30;52.40;;;;;;5032034;28;20052;-61
2022/09/04 14:17:09;;;;;;;2.72;1.95;;;24.30;52.40;;;;;;5032437;28;20512;-64
2022/09/04 14:20:09;;;;;;;2.97;2.10;;;24.30;52.30;;;;;;5032934;28;20380;-64
2022/09/04 14:22:53;;;;;;;2.85;2.10;;;24.30;52.40;;;;;;5032346;28;20457;-65